sensor_id;sensor_type;location;lat;lon;timestamp;P1;durP1;ratioP1;P2;durP2;ratioP2
16352;SDS011;8286;51.274;9.542;2023-04-21T00:00:27;23.43;;;12.47;;
16352;SDS011;8286;51.274;9.542;2023-04-21T00:02:54;19.83;;;11.63;;
16352;SDS011;8286;51.274;9.542;2023-04-21T00:05:22;20.70;;;13.30;;
16352;SDS011;8286;51.274;9.542;2023-04-21T00:07:48;20.23;;;12.47;;
16352;SDS011;8286;51.274;9.542;2023-04-21T00:10:15;21.53;;;12.17;;
16352;SDS011;8286;51.274;9.542;2023-04-21T00:12:41;23.03;;;12.10;;
16352;SDS011;8286;51.274;9.542;2023-04-21T00:15:08;18.80;;;12.27;;
16352;SDS011;8286;51.274;9.542;2023-04-21T00:17:35;20.23;;;13.23;;
16352;SDS011;8286;51.274;9.542;2023-04-21T00:20:01;19.87;;;11.37;;
16352;SDS011;8286;51.274;9.542;2023-04-21T00:22:32;20.60;;;12.47;;
16352;SDS011;8286;51.274;9.542;2023-04-21T00:24:58;19.73;;;12.37;;
16352;SDS011;8286;51.274;9.542;2023-04-21T00:27:25;23.97;;;12.70;;
16352;SDS011;8286;51.274;9.542;2023-04-21T00:29:51;21.13;;;12.40;;
16352;SDS011;8286;51.274;9.542;2023-04-21T00:32:18;21.70;;;12.70;;
16352;SDS011;8286;51.274;9.542;2023-04-21T00:34:44;24.43;;;13.47;;
16352;SDS011;8286;51.274;9.542;2023-04-21T00:37:11;19.73;;;12.30;;
16352;SDS011;8286;51.274;9.542;2023-04-21T00:39:39;23.93;;;12.77;;
16352;SDS011;8286;51.274;9.542;2023-04-21T00:42:05;26.33;;;12.97;;
16352;SDS011;8286;51.274;9.542;2023-04-21T00:44:32;22.90;;;12.73;;
16352;SDS011;8286;51.274;9.542;2023-04-21T00:46:58;22.83;;;13.37;;
16352;SDS011;8286;51.274;9.542;2023-04-21T00:49:25;22.27;;;13.27;;
16352;SDS011;8286;51.274;9.542;2023-04-21T00:51:51;18.53;;;12.03;;
16352;SDS011;8286;51.274;9.542;2023-04-21T00:54:18;21.40;;;13.07;;
16352;SDS011;8286;51.274;9.542;2023-04-21T00:56:46;27.53;;;13.57;;
16352;SDS011;8286;51.274;9.542;2023-04-21T00:59:13;24.00;;;13.00;;
16352;SDS011;8286;51.274;9.542;2023-04-21T01:01:40;22.53;;;12.57;;
16352;SDS011;8286;51.274;9.542;2023-04-21T01:04:06;25.37;;;12.90;;
16352;SDS011;8286;51.274;9.542;2023-04-21T01:06:34;22.13;;;12.67;;
16352;SDS011;8286;51.274;9.542;2023-04-21T01:09:01;26.40;;;12.53;;
16352;SDS011;8286;51.274;9.542;2023-04-21T01:11:28;26.13;;;12.93;;
16352;SDS011;8286;51.274;9.542;2023-04-21T01:13:56;25.30;;;13.13;;
16352;SDS011;8286;51.274;9.542;2023-04-21T01:16:23;26.17;;;13.20;;
16352;SDS011;8286;51.274;9.542;2023-04-21T01:18:50;22.13;;;12.67;;
16352;SDS011;8286;51.274;9.542;2023-04-21T01:21:18;23.40;;;12.83;;
16352;SDS011;8286;51.274;9.542;2023-04-21T01:23:47;23.90;;;13.13;;
16352;SDS011;8286;51.274;9.542;2023-04-21T01:26:16;21.07;;;12.87;;
16352;SDS011;8286;51.274;9.542;2023-04-21T01:28:42;21.93;;;13.50;;
16352;SDS011;8286;51.274;9.542;2023-04-21T01:31:10;23.27;;;13.37;;
16352;SDS011;8286;51.274;9.542;2023-04-21T01:33:36;28.43;;;13.93;;
16352;SDS011;8286;51.274;9.542;2023-04-21T01:36:03;27.43;;;13.67;;
16352;SDS011;8286;51.274;9.542;2023-04-21T01:38:30;23.67;;;14.90;;
16352;SDS011;8286;51.274;9.542;2023-04-21T01:40:57;26.70;;;14.40;;
16352;SDS011;8286;51.274;9.542;2023-04-21T01:43:24;25.13;;;13.57;;
16352;SDS011;8286;51.274;9.542;2023-04-21T01:45:51;22.67;;;14.03;;
16352;SDS011;8286;51.274;9.542;2023-04-21T01:48:18;25.23;;;14.53;;
16352;SDS011;8286;51.274;9.542;2023-04-21T01:50:45;27.03;;;14.10;;
16352;SDS011;8286;51.274;9.542;2023-04-21T01:53:11;23.77;;;14.40;;
16352;SDS011;8286;51.274;9.542;2023-04-21T01:55:38;24.27;;;13.93;;
16352;SDS011;8286;51.274;9.542;2023-04-21T01:58:06;27.73;;;14.23;;
16352;SDS011;8286;51.274;9.542;2023-04-21T02:00:33;21.17;;;12.83;;
16352;SDS011;8286;51.274;9.542;2023-04-21T02:02:59;25.57;;;13.57;;
16352;SDS011;8286;51.274;9.542;2023-04-21T02:05:26;24.13;;;14.50;;
16352;SDS011;8286;51.274;9.542;2023-04-21T02:07:53;27.63;;;14.10;;
16352;SDS011;8286;51.274;9.542;2023-04-21T02:10:19;23.77;;;13.80;;
16352;SDS011;8286;51.274;9.542;2023-04-21T02:12:46;25.77;;;13.83;;
16352;SDS011;8286;51.274;9.542;2023-04-21T02:15:14;25.53;;;13.43;;
16352;SDS011;8286;51.274;9.542;2023-04-21T02:17:40;23.67;;;14.23;;
16352;SDS011;8286;51.274;9.542;2023-04-21T02:20:09;22.73;;;12.67;;
16352;SDS011;8286;51.274;9.542;2023-04-21T02:22:37;22.73;;;12.73;;
16352;SDS011;8286;51.274;9.542;2023-04-21T02:25:04;21.97;;;12.53;;
16352;SDS011;8286;51.274;9.542;2023-04-21T02:27:31;24.33;;;13.20;;
16352;SDS011;8286;51.274;9.542;2023-04-21T02:29:57;26.87;;;13.37;;
16352;SDS011;8286;51.274;9.542;2023-04-21T02:32:25;25.43;;;13.17;;
16352;SDS011;8286;51.274;9.542;2023-04-21T02:34:52;20.67;;;12.47;;
16352;SDS011;8286;51.274;9.542;2023-04-21T02:37:18;20.10;;;11.97;;
16352;SDS011;8286;51.274;9.542;2023-04-21T02:39:45;25.33;;;12.93;;
16352;SDS011;8286;51.274;9.542;2023-04-21T02:42:12;25.60;;;13.47;;
16352;SDS011;8286;51.274;9.542;2023-04-21T02:44:38;21.87;;;13.97;;
16352;SDS011;8286;51.274;9.542;2023-04-21T02:47:04;22.50;;;12.53;;
16352;SDS011;8286;51.274;9.542;2023-04-21T02:49:32;22.00;;;12.20;;
16352;SDS011;8286;51.274;9.542;2023-04-21T02:51:59;22.07;;;13.00;;
16352;SDS011;8286;51.274;9.542;2023-04-21T02:54:25;23.97;;;13.00;;
16352;SDS011;8286;51.274;9.542;2023-04-21T02:56:52;21.00;;;12.40;;
16352;SDS011;8286;51.274;9.542;2023-04-21T02:59:18;26.47;;;12.73;;
16352;SDS011;8286;51.274;9.542;2023-04-21T03:01:45;26.63;;;13.30;;
16352;SDS011;8286;51.274;9.542;2023-04-21T03:04:13;23.47;;;12.23;;
16352;SDS011;8286;51.274;9.542;2023-04-21T03:06:41;21.47;;;11.93;;
16352;SDS011;8286;51.274;9.542;2023-04-21T03:09:07;21.77;;;12.63;;
16352;SDS011;8286;51.274;9.542;2023-04-21T03:11:34;19.10;;;11.90;;
16352;SDS011;8286;51.274;9.542;2023-04-21T03:14:01;25.70;;;12.73;;
16352;SDS011;8286;51.274;9.542;2023-04-21T03:16:27;23.43;;;13.20;;
16352;SDS011;8286;51.274;9.542;2023-04-21T03:18:54;21.60;;;12.37;;
16352;SDS011;8286;51.274;9.542;2023-04-21T03:21:20;25.17;;;13.37;;
16352;SDS011;8286;51.274;9.542;2023-04-21T03:23:48;20.80;;;12.50;;
16352;SDS011;8286;51.274;9.542;2023-04-21T03:26:15;23.03;;;12.97;;
16352;SDS011;8286;51.274;9.542;2023-04-21T03:28:41;21.97;;;12.77;;
16352;SDS011;8286;51.274;9.542;2023-04-21T03:31:08;19.83;;;11.83;;
16352;SDS011;8286;51.274;9.542;2023-04-21T03:33:34;23.57;;;12.23;;
16352;SDS011;8286;51.274;9.542;2023-04-21T03:36:01;22.23;;;12.57;;
16352;SDS011;8286;51.274;9.542;2023-04-21T03:38:27;22.90;;;12.37;;
16352;SDS011;8286;51.274;9.542;2023-04-21T03:40:55;25.07;;;12.83;;
16352;SDS011;8286;51.274;9.542;2023-04-21T03:43:22;21.00;;;11.87;;
16352;SDS011;8286;51.274;9.542;2023-04-21T03:45:48;28.73;;;13.73;;
16352;SDS011;8286;51.274;9.542;2023-04-21T03:48:15;22.47;;;12.10;;
16352;SDS011;8286;51.274;9.542;2023-04-21T03:50:41;22.83;;;13.20;;
16352;SDS011;8286;51.274;9.542;2023-04-21T03:53:08;21.00;;;12.60;;
16352;SDS011;8286;51.274;9.542;2023-04-21T03:55:35;24.33;;;13.17;;
16352;SDS011;8286;51.274;9.542;2023-04-21T03:58:03;25.30;;;14.07;;
16352;SDS011;8286;51.274;9.542;2023-04-21T04:00:29;21.03;;;11.73;;
16352;SDS011;8286;51.274;9.542;2023-04-21T04:02:56;23.20;;;12.87;;
16352;SDS011;8286;51.274;9.542;2023-04-21T04:05:22;23.20;;;12.63;;
16352;SDS011;8286;51.274;9.542;2023-04-21T04:07:49;21.83;;;12.53;;
16352;SDS011;8286;51.274;9.542;2023-04-21T04:10:15;23.97;;;13.00;;
16352;SDS011;8286;51.274;9.542;2023-04-21T04:12:42;22.13;;;12.67;;
16352;SDS011;8286;51.274;9.542;2023-04-21T04:15:10;26.50;;;12.80;;
16352;SDS011;8286;51.274;9.542;2023-04-21T04:17:37;22.30;;;12.97;;
16352;SDS011;8286;51.274;9.542;2023-04-21T04:20:04;21.77;;;12.13;;
16352;SDS011;8286;51.274;9.542;2023-04-21T04:22:32;23.90;;;12.93;;
16352;SDS011;8286;51.274;9.542;2023-04-21T04:24:58;22.93;;;13.17;;
16352;SDS011;8286;51.274;9.542;2023-04-21T04:27:25;20.90;;;12.23;;
16352;SDS011;8286;51.274;9.542;2023-04-21T04:29:52;26.33;;;13.00;;
16352;SDS011;8286;51.274;9.542;2023-04-21T04:32:20;22.20;;;12.20;;
16352;SDS011;8286;51.274;9.542;2023-04-21T04:34:46;20.00;;;11.30;;
16352;SDS011;8286;51.274;9.542;2023-04-21T04:37:13;22.70;;;13.33;;
16352;SDS011;8286;51.274;9.542;2023-04-21T04:39:39;22.23;;;12.33;;
16352;SDS011;8286;51.274;9.542;2023-04-21T04:42:06;21.77;;;12.50;;
16352;SDS011;8286;51.274;9.542;2023-04-21T04:44:34;21.23;;;12.77;;
16352;SDS011;8286;51.274;9.542;2023-04-21T04:47:01;24.57;;;13.17;;
16352;SDS011;8286;51.274;9.542;2023-04-21T04:49:29;23.43;;;12.37;;
16352;SDS011;8286;51.274;9.542;2023-04-21T04:51:55;24.37;;;12.93;;
16352;SDS011;8286;51.274;9.542;2023-04-21T04:54:22;25.30;;;13.30;;
16352;SDS011;8286;51.274;9.542;2023-04-21T04:56:49;24.33;;;12.10;;
16352;SDS011;8286;51.274;9.542;2023-04-21T04:59:15;21.10;;;12.40;;
16352;SDS011;8286;51.274;9.542;2023-04-21T05:01:42;22.93;;;13.10;;
16352;SDS011;8286;51.274;9.542;2023-04-21T05:04:08;26.17;;;12.50;;
16352;SDS011;8286;51.274;9.542;2023-04-21T05:06:36;26.00;;;12.83;;
16352;SDS011;8286;51.274;9.542;2023-04-21T05:09:03;22.30;;;11.93;;
16352;SDS011;8286;51.274;9.542;2023-04-21T05:11:29;20.93;;;11.77;;
16352;SDS011;8286;51.274;9.542;2023-04-21T05:13:56;20.57;;;11.80;;
16352;SDS011;8286;51.274;9.542;2023-04-21T05:16:23;20.43;;;11.93;;
16352;SDS011;8286;51.274;9.542;2023-04-21T05:18:49;24.27;;;11.77;;
16352;SDS011;8286;51.274;9.542;2023-04-21T05:21:21;21.60;;;12.63;;
16352;SDS011;8286;51.274;9.542;2023-04-21T05:23:50;26.10;;;12.53;;
16352;SDS011;8286;51.274;9.542;2023-04-21T05:26:16;23.43;;;12.97;;
16352;SDS011;8286;51.274;9.542;2023-04-21T05:28:43;20.33;;;11.63;;
16352;SDS011;8286;51.274;9.542;2023-04-21T05:31:09;20.97;;;11.60;;
16352;SDS011;8286;51.274;9.542;2023-04-21T05:33:36;22.50;;;10.70;;
16352;SDS011;8286;51.274;9.542;2023-04-21T05:36:05;20.97;;;12.17;;
16352;SDS011;8286;51.274;9.542;2023-04-21T05:38:32;19.83;;;11.87;;
16352;SDS011;8286;51.274;9.542;2023-04-21T05:41:00;21.23;;;11.30;;
16352;SDS011;8286;51.274;9.542;2023-04-21T05:43:26;20.17;;;11.93;;
16352;SDS011;8286;51.274;9.542;2023-04-21T05:45:53;18.60;;;10.77;;
16352;SDS011;8286;51.274;9.542;2023-04-21T05:48:19;26.47;;;11.63;;
16352;SDS011;8286;51.274;9.542;2023-04-21T05:50:47;19.30;;;11.57;;
16352;SDS011;8286;51.274;9.542;2023-04-21T05:53:13;20.30;;;11.97;;
16352;SDS011;8286;51.274;9.542;2023-04-21T05:55:40;18.77;;;10.77;;
16352;SDS011;8286;51.274;9.542;2023-04-21T05:58:08;22.37;;;11.80;;
16352;SDS011;8286;51.274;9.542;2023-04-21T06:00:34;22.37;;;12.93;;
16352;SDS011;8286;51.274;9.542;2023-04-21T06:03:01;18.83;;;11.30;;
16352;SDS011;8286;51.274;9.542;2023-04-21T06:05:28;17.33;;;10.27;;
16352;SDS011;8286;51.274;9.542;2023-04-21T06:07:54;19.17;;;10.67;;
16352;SDS011;8286;51.274;9.542;2023-04-21T06:10:21;18.63;;;11.40;;
16352;SDS011;8286;51.274;9.542;2023-04-21T06:12:47;17.60;;;11.10;;
16352;SDS011;8286;51.274;9.542;2023-04-21T06:15:15;20.00;;;10.67;;
16352;SDS011;8286;51.274;9.542;2023-04-21T06:17:42;22.30;;;10.80;;
16352;SDS011;8286;51.274;9.542;2023-04-21T06:20:09;20.63;;;10.27;;
16352;SDS011;8286;51.274;9.542;2023-04-21T06:22:36;20.53;;;10.83;;
16352;SDS011;8286;51.274;9.542;2023-04-21T06:25:03;15.40;;;9.53;;
16352;SDS011;8286;51.274;9.542;2023-04-21T06:27:30;21.47;;;10.27;;
16352;SDS011;8286;51.274;9.542;2023-04-21T06:29:57;20.90;;;10.33;;
16352;SDS011;8286;51.274;9.542;2023-04-21T06:32:25;14.77;;;9.18;;
16352;SDS011;8286;51.274;9.542;2023-04-21T06:34:51;15.57;;;9.02;;
16352;SDS011;8286;51.274;9.542;2023-04-21T06:37:18;18.63;;;9.38;;
16352;SDS011;8286;51.274;9.542;2023-04-21T06:39:44;14.18;;;8.95;;
16352;SDS011;8286;51.274;9.542;2023-04-21T06:42:11;14.43;;;9.75;;
16352;SDS011;8286;51.274;9.542;2023-04-21T06:44:37;16.35;;;8.45;;
16352;SDS011;8286;51.274;9.542;2023-04-21T06:47:04;11.13;;;8.02;;
16352;SDS011;8286;51.274;9.542;2023-04-21T06:49:31;13.27;;;8.57;;
16352;SDS011;8286;51.274;9.542;2023-04-21T06:51:59;13.48;;;8.73;;
16352;SDS011;8286;51.274;9.542;2023-04-21T06:54:25;17.30;;;9.00;;
16352;SDS011;8286;51.274;9.542;2023-04-21T06:56:52;14.30;;;8.48;;
16352;SDS011;8286;51.274;9.542;2023-04-21T06:59:18;17.53;;;9.30;;
16352;SDS011;8286;51.274;9.542;2023-04-21T07:01:45;17.07;;;8.57;;
16352;SDS011;8286;51.274;9.542;2023-04-21T07:04:13;15.50;;;8.67;;
16352;SDS011;8286;51.274;9.542;2023-04-21T07:06:41;13.70;;;8.90;;
16352;SDS011;8286;51.274;9.542;2023-04-21T07:09:07;16.00;;;9.27;;
16352;SDS011;8286;51.274;9.542;2023-04-21T07:11:34;13.37;;;8.17;;
16352;SDS011;8286;51.274;9.542;2023-04-21T07:14:00;11.77;;;8.43;;
16352;SDS011;8286;51.274;9.542;2023-04-21T07:16:27;16.65;;;8.70;;
16352;SDS011;8286;51.274;9.542;2023-04-21T07:18:53;11.93;;;7.85;;
16352;SDS011;8286;51.274;9.542;2023-04-21T07:21:20;14.27;;;8.00;;
16352;SDS011;8286;51.274;9.542;2023-04-21T07:23:48;15.10;;;8.43;;
16352;SDS011;8286;51.274;9.542;2023-04-21T07:26:15;12.23;;;8.68;;
16352;SDS011;8286;51.274;9.542;2023-04-21T07:28:42;16.08;;;8.25;;
16352;SDS011;8286;51.274;9.542;2023-04-21T07:31:08;11.05;;;7.45;;
16352;SDS011;8286;51.274;9.542;2023-04-21T07:33:35;10.18;;;7.35;;
16352;SDS011;8286;51.274;9.542;2023-04-21T07:36:01;14.73;;;7.85;;
16352;SDS011;8286;51.274;9.542;2023-04-21T07:38:28;15.05;;;8.85;;
16352;SDS011;8286;51.274;9.542;2023-04-21T07:40:56;10.60;;;8.13;;
16352;SDS011;8286;51.274;9.542;2023-04-21T07:43:23;15.00;;;8.25;;
16352;SDS011;8286;51.274;9.542;2023-04-21T07:45:50;12.73;;;8.00;;
16352;SDS011;8286;51.274;9.542;2023-04-21T07:48:17;11.15;;;7.68;;
16352;SDS011;8286;51.274;9.542;2023-04-21T07:50:44;11.52;;;7.88;;
16352;SDS011;8286;51.274;9.542;2023-04-21T07:53:10;11.80;;;8.10;;
16352;SDS011;8286;51.274;9.542;2023-04-21T07:55:37;13.70;;;7.63;;
16352;SDS011;8286;51.274;9.542;2023-04-21T07:58:05;15.15;;;9.10;;
16352;SDS011;8286;51.274;9.542;2023-04-21T08:00:32;14.13;;;7.22;;
16352;SDS011;8286;51.274;9.542;2023-04-21T08:02:58;11.55;;;7.45;;
16352;SDS011;8286;51.274;9.542;2023-04-21T08:05:25;12.13;;;7.40;;
16352;SDS011;8286;51.274;9.542;2023-04-21T08:07:51;12.05;;;7.32;;
16352;SDS011;8286;51.274;9.542;2023-04-21T08:10:18;12.40;;;8.40;;
16352;SDS011;8286;51.274;9.542;2023-04-21T08:12:44;16.83;;;7.85;;
16352;SDS011;8286;51.274;9.542;2023-04-21T08:15:12;11.10;;;7.53;;
16352;SDS011;8286;51.274;9.542;2023-04-21T08:17:39;11.82;;;7.70;;
16352;SDS011;8286;51.274;9.542;2023-04-21T08:20:06;11.60;;;7.20;;
16352;SDS011;8286;51.274;9.542;2023-04-21T08:22:34;11.85;;;7.13;;
16352;SDS011;8286;51.274;9.542;2023-04-21T08:25:00;13.63;;;7.70;;
16352;SDS011;8286;51.274;9.542;2023-04-21T08:27:27;11.60;;;7.18;;
16352;SDS011;8286;51.274;9.542;2023-04-21T08:29:53;12.32;;;7.03;;
16352;SDS011;8286;51.274;9.542;2023-04-21T08:32:21;11.43;;;6.50;;
16352;SDS011;8286;51.274;9.542;2023-04-21T08:34:48;9.25;;;6.55;;
16352;SDS011;8286;51.274;9.542;2023-04-21T08:37:16;8.10;;;6.38;;
16352;SDS011;8286;51.274;9.542;2023-04-21T08:39:43;15.07;;;6.90;;
16352;SDS011;8286;51.274;9.542;2023-04-21T08:42:09;11.65;;;7.63;;
16352;SDS011;8286;51.274;9.542;2023-04-21T08:44:36;8.20;;;6.18;;
16352;SDS011;8286;51.274;9.542;2023-04-21T08:47:05;11.05;;;6.70;;
16352;SDS011;8286;51.274;9.542;2023-04-21T08:49:35;12.80;;;7.35;;
16352;SDS011;8286;51.274;9.542;2023-04-21T08:52:02;12.70;;;7.15;;
16352;SDS011;8286;51.274;9.542;2023-04-21T08:54:28;11.27;;;6.95;;
16352;SDS011;8286;51.274;9.542;2023-04-21T08:56:55;11.85;;;6.88;;
16352;SDS011;8286;51.274;9.542;2023-04-21T08:59:22;12.57;;;7.10;;
16352;SDS011;8286;51.274;9.542;2023-04-21T09:02:07;10.90;;;6.97;;
16352;SDS011;8286;51.274;9.542;2023-04-21T09:04:38;10.90;;;7.20;;
16352;SDS011;8286;51.274;9.542;2023-04-21T09:07:05;9.48;;;7.05;;
16352;SDS011;8286;51.274;9.542;2023-04-21T09:09:32;11.13;;;6.88;;
16352;SDS011;8286;51.274;9.542;2023-04-21T09:11:59;9.45;;;6.53;;
16352;SDS011;8286;51.274;9.542;2023-04-21T09:14:35;11.63;;;7.15;;
16352;SDS011;8286;51.274;9.542;2023-04-21T09:17:02;16.17;;;7.13;;
16352;SDS011;8286;51.274;9.542;2023-04-21T09:19:29;11.18;;;6.43;;
16352;SDS011;8286;51.274;9.542;2023-04-21T09:22:00;8.80;;;6.40;;
16352;SDS011;8286;51.274;9.542;2023-04-21T09:24:27;9.13;;;6.57;;
16352;SDS011;8286;51.274;9.542;2023-04-21T09:26:54;11.85;;;7.30;;
16352;SDS011;8286;51.274;9.542;2023-04-21T09:29:21;9.93;;;6.53;;
16352;SDS011;8286;51.274;9.542;2023-04-21T09:31:48;12.50;;;6.68;;
16352;SDS011;8286;51.274;9.542;2023-04-21T09:34:18;10.80;;;6.75;;
16352;SDS011;8286;51.274;9.542;2023-04-21T09:36:45;11.82;;;6.43;;
16352;SDS011;8286;51.274;9.542;2023-04-21T09:39:13;11.57;;;6.60;;
16352;SDS011;8286;51.274;9.542;2023-04-21T09:41:40;10.55;;;5.75;;
16352;SDS011;8286;51.274;9.542;2023-04-21T09:44:08;12.30;;;6.95;;
16352;SDS011;8286;51.274;9.542;2023-04-21T09:46:35;13.27;;;6.22;;
16352;SDS011;8286;51.274;9.542;2023-04-21T09:49:02;10.18;;;5.30;;
16352;SDS011;8286;51.274;9.542;2023-04-21T09:51:29;9.48;;;5.80;;
16352;SDS011;8286;51.274;9.542;2023-04-21T09:53:57;7.55;;;6.18;;
16352;SDS011;8286;51.274;9.542;2023-04-21T09:56:25;8.02;;;6.10;;
16352;SDS011;8286;51.274;9.542;2023-04-21T09:58:56;9.43;;;5.68;;
16352;SDS011;8286;51.274;9.542;2023-04-21T10:01:24;12.02;;;6.13;;
16352;SDS011;8286;51.274;9.542;2023-04-21T10:03:52;6.63;;;5.30;;
16352;SDS011;8286;51.274;9.542;2023-04-21T10:06:19;6.82;;;5.32;;
16352;SDS011;8286;51.274;9.542;2023-04-21T10:08:45;9.27;;;5.30;;
16352;SDS011;8286;51.274;9.542;2023-04-21T10:11:12;8.70;;;5.47;;
16352;SDS011;8286;51.274;9.542;2023-04-21T10:13:41;7.65;;;5.00;;
16352;SDS011;8286;51.274;9.542;2023-04-21T10:16:08;7.78;;;5.57;;
16352;SDS011;8286;51.274;9.542;2023-04-21T10:18:35;8.50;;;5.30;;
16352;SDS011;8286;51.274;9.542;2023-04-21T10:21:04;8.05;;;5.70;;
16352;SDS011;8286;51.274;9.542;2023-04-21T10:23:36;9.10;;;5.78;;
16352;SDS011;8286;51.274;9.542;2023-04-21T10:26:05;5.78;;;5.18;;
16352;SDS011;8286;51.274;9.542;2023-04-21T10:28:38;9.30;;;5.22;;
16352;SDS011;8286;51.274;9.542;2023-04-21T10:31:17;6.13;;;5.30;;
16352;SDS011;8286;51.274;9.542;2023-04-21T10:34:13;6.75;;;4.95;;
16352;SDS011;8286;51.274;9.542;2023-04-21T10:36:41;8.88;;;5.32;;
16352;SDS011;8286;51.274;9.542;2023-04-21T10:39:24;9.00;;;4.72;;
16352;SDS011;8286;51.274;9.542;2023-04-21T10:41:52;8.45;;;4.85;;
16352;SDS011;8286;51.274;9.542;2023-04-21T10:44:20;6.75;;;5.00;;
16352;SDS011;8286;51.274;9.542;2023-04-21T10:46:48;8.85;;;4.82;;
16352;SDS011;8286;51.274;9.542;2023-04-21T10:49:20;6.70;;;5.22;;
16352;SDS011;8286;51.274;9.542;2023-04-21T10:52:05;7.60;;;5.03;;
16352;SDS011;8286;51.274;9.542;2023-04-21T10:54:39;7.45;;;4.82;;
16352;SDS011;8286;51.274;9.542;2023-04-21T10:57:09;9.20;;;5.03;;
16352;SDS011;8286;51.274;9.542;2023-04-21T10:59:36;8.05;;;4.88;;
16352;SDS011;8286;51.274;9.542;2023-04-21T11:02:05;7.90;;;5.25;;
16352;SDS011;8286;51.274;9.542;2023-04-21T11:04:32;5.95;;;4.03;;
16352;SDS011;8286;51.274;9.542;2023-04-21T11:07:05;6.80;;;4.60;;
16352;SDS011;8286;51.274;9.542;2023-04-21T11:09:32;8.18;;;4.80;;
16352;SDS011;8286;51.274;9.542;2023-04-21T11:11:59;6.55;;;5.20;;
16352;SDS011;8286;51.274;9.542;2023-04-21T11:14:27;5.40;;;4.88;;
16352;SDS011;8286;51.274;9.542;2023-04-21T11:16:53;7.82;;;5.53;;
16352;SDS011;8286;51.274;9.542;2023-04-21T11:19:21;6.03;;;4.93;;
16352;SDS011;8286;51.274;9.542;2023-04-21T11:21:50;5.90;;;4.90;;
16352;SDS011;8286;51.274;9.542;2023-04-21T11:24:18;6.00;;;4.97;;
16352;SDS011;8286;51.274;9.542;2023-04-21T11:26:45;5.70;;;4.45;;
16352;SDS011;8286;51.274;9.542;2023-04-21T11:29:12;8.90;;;4.53;;
16352;SDS011;8286;51.274;9.542;2023-04-21T11:31:40;6.55;;;5.05;;
16352;SDS011;8286;51.274;9.542;2023-04-21T11:34:09;7.00;;;4.78;;
16352;SDS011;8286;51.274;9.542;2023-04-21T11:36:38;7.32;;;4.70;;
16352;SDS011;8286;51.274;9.542;2023-04-21T11:39:05;8.45;;;5.10;;
16352;SDS011;8286;51.274;9.542;2023-04-21T11:41:34;11.18;;;5.53;;
16352;SDS011;8286;51.274;9.542;2023-04-21T11:44:01;12.55;;;5.45;;
16352;SDS011;8286;51.274;9.542;2023-04-21T11:46:27;6.25;;;4.78;;
16352;SDS011;8286;51.274;9.542;2023-04-21T11:48:57;5.35;;;4.40;;
16352;SDS011;8286;51.274;9.542;2023-04-21T11:51:24;6.25;;;4.85;;
16352;SDS011;8286;51.274;9.542;2023-04-21T11:53:53;11.05;;;5.18;;
16352;SDS011;8286;51.274;9.542;2023-04-21T11:56:20;8.85;;;4.57;;
16352;SDS011;8286;51.274;9.542;2023-04-21T11:58:48;9.98;;;4.88;;
16352;SDS011;8286;51.274;9.542;2023-04-21T12:01:16;7.55;;;5.00;;
16352;SDS011;8286;51.274;9.542;2023-04-21T12:03:49;9.10;;;4.72;;
16352;SDS011;8286;51.274;9.542;2023-04-21T12:06:19;8.30;;;5.20;;
16352;SDS011;8286;51.274;9.542;2023-04-21T12:08:46;5.90;;;4.15;;
16352;SDS011;8286;51.274;9.542;2023-04-21T12:11:16;8.90;;;5.13;;
16352;SDS011;8286;51.274;9.542;2023-04-21T12:13:43;6.07;;;5.10;;
16352;SDS011;8286;51.274;9.542;2023-04-21T12:16:11;8.00;;;5.00;;
16352;SDS011;8286;51.274;9.542;2023-04-21T12:18:38;7.00;;;5.25;;
16352;SDS011;8286;51.274;9.542;2023-04-21T12:21:04;9.75;;;4.50;;
16352;SDS011;8286;51.274;9.542;2023-04-21T12:23:31;10.48;;;5.07;;
16352;SDS011;8286;51.274;9.542;2023-04-21T12:25:57;6.25;;;4.60;;
16352;SDS011;8286;51.274;9.542;2023-04-21T12:28:26;7.22;;;5.15;;
16352;SDS011;8286;51.274;9.542;2023-04-21T12:30:55;7.55;;;5.35;;
16352;SDS011;8286;51.274;9.542;2023-04-21T12:33:21;11.38;;;5.13;;
16352;SDS011;8286;51.274;9.542;2023-04-21T12:35:48;9.13;;;4.80;;
16352;SDS011;8286;51.274;9.542;2023-04-21T12:38:14;10.63;;;4.93;;
16352;SDS011;8286;51.274;9.542;2023-04-21T12:40:41;7.43;;;4.70;;
16352;SDS011;8286;51.274;9.542;2023-04-21T12:43:07;7.05;;;4.65;;
16352;SDS011;8286;51.274;9.542;2023-04-21T12:45:35;8.68;;;5.30;;
16352;SDS011;8286;51.274;9.542;2023-04-21T12:48:02;8.82;;;5.22;;
16352;SDS011;8286;51.274;9.542;2023-04-21T12:50:29;8.63;;;4.75;;
16352;SDS011;8286;51.274;9.542;2023-04-21T12:52:55;6.72;;;4.88;;
16352;SDS011;8286;51.274;9.542;2023-04-21T12:55:22;6.60;;;4.57;;
16352;SDS011;8286;51.274;9.542;2023-04-21T12:57:48;7.15;;;4.65;;
16352;SDS011;8286;51.274;9.542;2023-04-21T13:00:16;9.27;;;4.57;;
16352;SDS011;8286;51.274;9.542;2023-04-21T13:02:45;5.68;;;4.40;;
16352;SDS011;8286;51.274;9.542;2023-04-21T13:05:11;7.00;;;4.45;;
16352;SDS011;8286;51.274;9.542;2023-04-21T13:07:38;6.68;;;4.65;;
16352;SDS011;8286;51.274;9.542;2023-04-21T13:10:05;6.88;;;4.65;;
16352;SDS011;8286;51.274;9.542;2023-04-21T13:12:32;6.35;;;4.30;;
16352;SDS011;8286;51.274;9.542;2023-04-21T13:15:00;5.78;;;4.00;;
16352;SDS011;8286;51.274;9.542;2023-04-21T13:17:26;5.45;;;4.53;;
16352;SDS011;8286;51.274;9.542;2023-04-21T13:19:54;7.68;;;4.28;;
16352;SDS011;8286;51.274;9.542;2023-04-21T13:22:21;5.32;;;4.72;;
16352;SDS011;8286;51.274;9.542;2023-04-21T13:24:47;8.02;;;4.40;;
16352;SDS011;8286;51.274;9.542;2023-04-21T13:27:14;6.13;;;4.65;;
16352;SDS011;8286;51.274;9.542;2023-04-21T13:29:40;4.18;;;3.78;;
16352;SDS011;8286;51.274;9.542;2023-04-21T13:32:07;8.52;;;4.38;;
16352;SDS011;8286;51.274;9.542;2023-04-21T13:34:34;7.07;;;4.40;;
16352;SDS011;8286;51.274;9.542;2023-04-21T13:37:02;4.90;;;3.85;;
16352;SDS011;8286;51.274;9.542;2023-04-21T13:39:29;9.65;;;4.63;;
16352;SDS011;8286;51.274;9.542;2023-04-21T13:41:56;5.88;;;4.47;;
16352;SDS011;8286;51.274;9.542;2023-04-21T13:44:22;8.40;;;4.32;;
16352;SDS011;8286;51.274;9.542;2023-04-21T13:46:49;6.53;;;4.00;;
16352;SDS011;8286;51.274;9.542;2023-04-21T13:49:17;5.88;;;4.40;;
16352;SDS011;8286;51.274;9.542;2023-04-21T13:51:44;7.63;;;4.00;;
16352;SDS011;8286;51.274;9.542;2023-04-21T13:54:12;5.35;;;3.75;;
16352;SDS011;8286;51.274;9.542;2023-04-21T13:56:39;4.80;;;3.30;;
16352;SDS011;8286;51.274;9.542;2023-04-21T13:59:05;7.88;;;4.22;;
16352;SDS011;8286;51.274;9.542;2023-04-21T14:01:34;7.38;;;4.03;;
16352;SDS011;8286;51.274;9.542;2023-04-21T14:04:01;5.60;;;4.25;;
16352;SDS011;8286;51.274;9.542;2023-04-21T14:06:28;6.55;;;4.20;;
16352;SDS011;8286;51.274;9.542;2023-04-21T14:08:55;8.90;;;4.07;;
16352;SDS011;8286;51.274;9.542;2023-04-21T14:11:23;3.97;;;3.60;;
16352;SDS011;8286;51.274;9.542;2023-04-21T14:13:49;7.80;;;3.97;;
16352;SDS011;8286;51.274;9.542;2023-04-21T14:16:16;6.00;;;3.78;;
16352;SDS011;8286;51.274;9.542;2023-04-21T14:18:42;6.35;;;3.50;;
16352;SDS011;8286;51.274;9.542;2023-04-21T14:21:10;5.75;;;3.92;;
16352;SDS011;8286;51.274;9.542;2023-04-21T14:23:37;5.32;;;3.63;;
16352;SDS011;8286;51.274;9.542;2023-04-21T14:26:03;7.63;;;3.67;;
16352;SDS011;8286;51.274;9.542;2023-04-21T14:28:31;7.25;;;3.70;;
16352;SDS011;8286;51.274;9.542;2023-04-21T14:30:58;5.70;;;3.90;;
16352;SDS011;8286;51.274;9.542;2023-04-21T14:33:25;6.93;;;3.65;;
16352;SDS011;8286;51.274;9.542;2023-04-21T14:35:52;7.07;;;3.85;;
16352;SDS011;8286;51.274;9.542;2023-04-21T14:38:19;3.95;;;3.65;;
16352;SDS011;8286;51.274;9.542;2023-04-21T14:40:45;5.53;;;3.67;;
16352;SDS011;8286;51.274;9.542;2023-04-21T14:43:13;5.97;;;3.33;;
16352;SDS011;8286;51.274;9.542;2023-04-21T14:45:41;7.90;;;3.45;;